createdAt,value
2018-12-29T00:00:37.586Z,94.20
2018-12-29T00:03:06.798Z,94.10
2018-12-29T00:05:35.937Z,94.20
2018-12-29T00:08:05.095Z,94.20
2018-12-29T00:10:34.226Z,94.20
2018-12-29T00:13:03.385Z,94.20
2018-12-29T00:15:32.521Z,94.20
2018-12-29T00:18:01.650Z,93.90
2018-12-29T00:20:30.802Z,94.20
2018-12-29T00:22:59.986Z,94.20
2018-12-29T00:25:29.241Z,94.20
2018-12-29T00:27:58.593Z,94.20
2018-12-29T00:30:27.707Z,94.30
2018-12-29T00:32:56.943Z,94.30
2018-12-29T00:35:26.086Z,94.30
2018-12-29T00:37:55.713Z,94.20
2018-12-29T00:40:24.869Z,94.20
2018-12-29T00:42:54.053Z,94.20
2018-12-29T00:45:23.262Z,94.50
2018-12-29T00:47:52.400Z,94.30
2018-12-29T00:50:21.533Z,94.30
2018-12-29T00:52:50.693Z,94.30
2018-12-29T00:55:20.239Z,94.20
2018-12-29T00:57:49.569Z,94.10
2018-12-29T01:00:18.705Z,94.10
2018-12-29T01:02:47.898Z,94.20
2018-12-29T01:05:17.038Z,94.20
2018-12-29T01:07:46.178Z,94.30
2018-12-29T01:10:15.333Z,94.20
2018-12-29T01:12:44.542Z,94.30
2018-12-29T01:15:13.680Z,94.30
2018-12-29T01:17:42.905Z,94.20
2018-12-29T01:20:12.089Z,94.20
2018-12-29T01:22:41.317Z,94.20
2018-12-29T01:25:10.469Z,94.20
2018-12-29T01:27:39.681Z,94.30
2018-12-29T01:30:08.954Z,94.30
2018-12-29T01:32:38.117Z,94.20
2018-12-29T01:35:07.305Z,94.30
2018-12-29T01:37:36.522Z,94.40
2018-12-29T01:40:05.925Z,94.30
2018-12-29T01:42:35.041Z,94.30
2018-12-29T01:45:04.406Z,94.20
2018-12-29T01:47:33.550Z,94.30
2018-12-29T01:50:02.734Z,94.40
2018-12-29T01:52:32.157Z,94.30
2018-12-29T01:55:01.314Z,94.30
2018-12-29T01:57:30.437Z,94.30
2018-12-29T01:59:59.665Z,94.30
2018-12-29T02:02:28.961Z,94.30
2018-12-29T02:04:58.205Z,94.20
2018-12-29T02:07:27.394Z,94.20
2018-12-29T02:09:56.592Z,94.30
2018-12-29T02:12:25.670Z,94.30
2018-12-29T02:14:54.737Z,94.30
2018-12-29T02:17:23.825Z,94.30
2018-12-29T02:19:52.857Z,94.20
2018-12-29T02:22:21.937Z,94.30
2018-12-29T02:24:50.998Z,94.30
2018-12-29T02:27:20.064Z,94.30
2018-12-29T02:29:49.391Z,94.30
2018-12-29T02:32:18.429Z,94.30
2018-12-29T02:34:47.473Z,94.40
2018-12-29T02:37:16.541Z,94.50
2018-12-29T02:39:45.600Z,94.50
2018-12-29T02:42:14.866Z,94.50
2018-12-29T02:44:43.896Z,94.50
2018-12-29T02:47:13.025Z,94.40
2018-12-29T02:49:42.088Z,94.40
2018-12-29T02:52:11.158Z,94.40
2018-12-29T02:54:40.522Z,94.40
2018-12-29T02:57:09.599Z,94.40
2018-12-29T02:59:38.685Z,94.30
2018-12-29T03:02:07.771Z,94.30
2018-12-29T03:04:36.778Z,94.30
2018-12-29T03:07:05.834Z,94.40
2018-12-29T03:09:34.987Z,94.30
2018-12-29T03:12:05.377Z,94.30
2018-12-29T03:14:34.488Z,94.40
2018-12-29T03:17:03.634Z,94.50
2018-12-29T03:19:32.794Z,94.50
2018-12-29T03:22:02.176Z,94.40
2018-12-29T03:24:31.281Z,94.30
2018-12-29T03:27:00.479Z,94.30
2018-12-29T03:29:29.626Z,94.30
2018-12-29T03:31:58.757Z,94.30
2018-12-29T03:34:27.819Z,94.30
2018-12-29T03:36:56.857Z,94.40
2018-12-29T03:39:25.989Z,94.30
2018-12-29T03:41:55.087Z,94.30
2018-12-29T03:44:24.136Z,94.30
2018-12-29T03:46:53.176Z,94.30
2018-12-29T03:49:22.249Z,94.30
2018-12-29T03:51:51.292Z,94.30
2018-12-29T03:54:20.330Z,94.30
2018-12-29T03:56:49.637Z,94.30
2018-12-29T03:59:18.691Z,94.30
2018-12-29T04:01:47.743Z,94.20
2018-12-29T04:04:17.024Z,94.00
2018-12-29T04:06:46.053Z,94.20
2018-12-29T04:09:34.733Z,94.20
2018-12-29T04:12:27.622Z,94.20
2018-12-29T04:14:56.684Z,94.20
2018-12-29T04:17:25.645Z,94.10
2018-12-29T04:19:54.919Z,94.10
2018-12-29T04:22:23.882Z,94.20
2018-12-29T04:24:53.301Z,94.30
2018-12-29T04:27:22.420Z,94.30
2018-12-29T04:29:51.468Z,94.20
2018-12-29T04:32:20.893Z,94.20
2018-12-29T04:34:49.973Z,94.10
2018-12-29T04:37:19.049Z,94.20
2018-12-29T04:39:48.113Z,94.30
2018-12-29T04:42:17.191Z,94.20
2018-12-29T04:44:46.270Z,94.20
2018-12-29T04:47:15.384Z,94.20
2018-12-29T04:49:44.477Z,94.20
2018-12-29T04:52:13.521Z,94.20
2018-12-29T04:54:42.554Z,94.20
2018-12-29T04:57:11.610Z,94.10
2018-12-29T04:59:40.718Z,94.10
2018-12-29T05:02:09.753Z,94.20
2018-12-29T05:04:38.820Z,94.20
2018-12-29T05:07:08.020Z,94.30
2018-12-29T05:09:37.056Z,94.30
2018-12-29T05:12:06.185Z,94.30
2018-12-29T05:14:35.224Z,94.40
2018-12-29T05:17:04.609Z,94.40
2018-12-29T05:19:34.209Z,94.20
2018-12-29T05:22:03.324Z,94.10
2018-12-29T05:24:32.376Z,94.20
2018-12-29T05:27:01.695Z,94.10
2018-12-29T05:29:30.803Z,94.20
2018-12-29T05:31:59.916Z,94.20
2018-12-29T05:34:28.979Z,94.20
2018-12-29T05:36:58.057Z,94.20
2018-12-29T05:39:27.145Z,94.20
2018-12-29T05:41:56.280Z,94.20
2018-12-29T05:44:26.969Z,94.10
2018-12-29T05:46:56.029Z,94.20
2018-12-29T05:49:25.137Z,94.20
2018-12-29T05:51:54.224Z,94.30
2018-12-29T05:54:23.195Z,94.20
2018-12-29T05:56:52.247Z,94.30
2018-12-29T05:59:21.221Z,94.30
2018-12-29T06:01:50.261Z,94.40
2018-12-29T06:04:19.404Z,94.30
2018-12-29T06:06:48.468Z,94.20
2018-12-29T06:09:17.504Z,94.40
2018-12-29T06:11:46.456Z,94.10
2018-12-29T06:14:15.512Z,94.00
2018-12-29T06:16:44.577Z,93.90
2018-12-29T06:19:13.632Z,94.00
2018-12-29T06:21:42.729Z,94.10
2018-12-29T06:24:12.033Z,94.10
2018-12-29T06:26:41.068Z,94.10
2018-12-29T06:29:10.147Z,94.10
2018-12-29T06:31:39.209Z,94.10
2018-12-29T06:34:08.246Z,94.00
2018-12-29T06:36:37.506Z,94.00
2018-12-29T06:39:08.048Z,94.10
2018-12-29T06:41:37.116Z,94.00
2018-12-29T06:44:06.201Z,94.00
2018-12-29T06:46:35.418Z,94.00
2018-12-29T06:49:04.524Z,94.00
2018-12-29T06:51:33.545Z,94.20
2018-12-29T06:54:02.597Z,94.20
2018-12-29T06:56:31.632Z,94.20
2018-12-29T06:59:00.696Z,94.10
2018-12-29T07:01:29.768Z,94.20
2018-12-29T07:03:58.848Z,94.10
2018-12-29T07:06:27.884Z,94.20
2018-12-29T07:08:57.157Z,94.00
2018-12-29T07:11:26.506Z,94.00
2018-12-29T07:13:55.557Z,94.00
2018-12-29T07:16:24.617Z,94.00
2018-12-29T07:18:53.848Z,93.80
2018-12-29T07:21:22.924Z,93.70
2018-12-29T07:23:52.143Z,93.70
2018-12-29T07:26:21.132Z,93.60
2018-12-29T07:28:50.085Z,93.50
2018-12-29T07:31:19.137Z,93.40
2018-12-29T07:33:48.269Z,93.60
2018-12-29T07:36:17.328Z,93.60
2018-12-29T07:38:46.391Z,93.70
2018-12-29T07:41:15.824Z,93.60
2018-12-29T07:43:44.903Z,93.60
2018-12-29T07:46:13.980Z,93.60
2018-12-29T07:48:43.029Z,93.50
2018-12-29T07:51:12.068Z,93.50
2018-12-29T07:53:41.163Z,93.90
2018-12-29T07:56:10.211Z,93.50
2018-12-29T07:58:39.366Z,93.40
2018-12-29T08:01:08.429Z,93.00
2018-12-29T08:03:37.521Z,93.40
2018-12-29T08:06:06.556Z,93.40
2018-12-29T08:08:35.598Z,93.40
2018-12-29T08:11:04.928Z,93.50
2018-12-29T08:13:33.968Z,93.60
2018-12-29T08:16:03.085Z,93.60
2018-12-29T08:18:32.166Z,93.80
2018-12-29T08:21:01.833Z,93.80
2018-12-29T08:23:30.885Z,93.80
2018-12-29T08:26:00.033Z,93.90
2018-12-29T08:28:29.085Z,94.00
2018-12-29T08:30:58.149Z,94.00
2018-12-29T08:33:27.186Z,94.00
2018-12-29T08:35:56.301Z,94.00
2018-12-29T08:38:25.345Z,93.90
2018-12-29T08:40:54.392Z,94.00
2018-12-29T08:43:23.479Z,94.00
2018-12-29T08:45:52.858Z,94.00
2018-12-29T08:48:21.901Z,93.90
2018-12-29T08:50:50.936Z,94.00
2018-12-29T08:53:20.008Z,93.90
2018-12-29T08:55:49.042Z,94.00
2018-12-29T08:58:18.177Z,94.00
2018-12-29T09:00:47.280Z,94.20
2018-12-29T09:03:16.316Z,94.20
2018-12-29T09:05:45.425Z,94.10
2018-12-29T09:08:14.506Z,94.10
2018-12-29T09:10:43.742Z,94.10
2018-12-29T09:13:12.881Z,94.10
2018-12-29T09:15:41.964Z,94.20
2018-12-29T09:18:11.322Z,94.40
2018-12-29T09:20:40.388Z,94.40
2018-12-29T09:23:09.846Z,94.40
2018-12-29T09:25:38.898Z,94.40
2018-12-29T09:28:07.937Z,94.30
2018-12-29T09:30:37.073Z,94.40
2018-12-29T09:33:06.161Z,94.40
2018-12-29T09:35:35.218Z,94.50
2018-12-29T09:38:04.280Z,94.50
2018-12-29T09:40:33.685Z,94.50
2018-12-29T09:43:02.765Z,94.50
2018-12-29T09:45:31.802Z,94.40
2018-12-29T09:48:00.903Z,94.40
2018-12-29T09:50:29.989Z,94.50
2018-12-29T09:52:59.041Z,94.50
2018-12-29T09:55:28.165Z,94.50
2018-12-29T09:57:57.233Z,94.50
2018-12-29T10:00:26.284Z,94.50
2018-12-29T10:02:55.350Z,94.70
2018-12-29T10:05:24.389Z,94.60
2018-12-29T10:07:53.485Z,94.50
2018-12-29T10:10:22.557Z,94.60
2018-12-29T10:12:51.603Z,94.60
2018-12-29T10:15:20.912Z,94.60
2018-12-29T10:17:49.976Z,94.60
2018-12-29T10:20:19.021Z,94.60
2018-12-29T10:22:48.087Z,94.50
2018-12-29T10:25:17.158Z,94.50
2018-12-29T10:27:46.213Z,94.50
2018-12-29T10:30:15.594Z,94.60
2018-12-29T10:32:44.693Z,94.50
2018-12-29T10:35:13.767Z,94.50
2018-12-29T10:37:42.824Z,94.40
2018-12-29T10:40:11.869Z,94.40
2018-12-29T10:42:41.040Z,94.50
2018-12-29T10:45:10.105Z,94.50
2018-12-29T10:47:39.147Z,94.50
2018-12-29T10:50:08.493Z,94.50
2018-12-29T10:52:37.549Z,94.40
2018-12-29T10:55:06.665Z,94.40
2018-12-29T10:57:35.720Z,94.50
2018-12-29T11:00:05.426Z,94.60
2018-12-29T11:02:34.497Z,94.40
2018-12-29T11:05:03.566Z,94.50
2018-12-29T11:07:32.616Z,94.60
2018-12-29T11:10:01.702Z,94.70
2018-12-29T11:12:30.755Z,94.60
2018-12-29T11:14:59.801Z,94.50
2018-12-29T11:17:29.134Z,94.60
2018-12-29T11:19:58.173Z,94.50
2018-12-29T11:22:27.545Z,94.50
2018-12-29T11:24:56.665Z,94.60
2018-12-29T11:27:25.700Z,94.60
2018-12-29T11:29:54.985Z,94.60
2018-12-29T11:32:24.198Z,94.50
2018-12-29T11:34:53.247Z,94.60
2018-12-29T11:37:22.317Z,94.70
2018-12-29T11:39:51.581Z,94.70
2018-12-29T11:42:20.629Z,94.70
2018-12-29T11:44:49.676Z,94.70
2018-12-29T11:47:18.822Z,94.70
2018-12-29T11:49:47.812Z,94.60
2018-12-29T11:52:16.881Z,94.50
2018-12-29T11:54:45.965Z,94.60
2018-12-29T11:57:15.011Z,94.60
2018-12-29T11:59:44.077Z,94.60
2018-12-29T12:02:13.144Z,94.50
2018-12-29T12:04:42.267Z,94.30
2018-12-29T12:07:11.326Z,94.30
2018-12-29T12:09:40.709Z,94.40
2018-12-29T12:12:09.786Z,94.30
2018-12-29T12:14:38.895Z,94.50
2018-12-29T12:17:08.283Z,94.50
2018-12-29T12:19:37.373Z,94.50
2018-12-29T12:22:06.475Z,94.40
2018-12-29T12:24:35.909Z,94.30
2018-12-29T12:27:04.981Z,94.30
2018-12-29T12:29:34.072Z,94.20
2018-12-29T12:32:03.200Z,94.10
2018-12-29T12:34:32.300Z,94.20
2018-12-29T12:37:01.752Z,94.30
2018-12-29T12:39:30.825Z,94.30
2018-12-29T12:42:00.194Z,94.40
2018-12-29T12:44:29.310Z,94.80
2018-12-29T12:46:58.360Z,94.30
2018-12-29T12:49:27.456Z,94.40
2018-12-29T12:51:56.557Z,94.50
2018-12-29T12:54:26.176Z,94.70
2018-12-29T12:56:55.432Z,94.70
2018-12-29T12:59:24.517Z,94.50
2018-12-29T13:01:53.996Z,94.40
2018-12-29T13:04:23.085Z,94.30
2018-12-29T13:06:52.204Z,94.30
2018-12-29T13:09:21.336Z,94.20
2018-12-29T13:11:50.485Z,94.20
2018-12-29T13:14:20.021Z,94.10
2018-12-29T13:16:49.123Z,94.10
2018-12-29T13:19:18.680Z,94.00
2018-12-29T13:21:49.434Z,93.90
2018-12-29T13:24:18.644Z,94.00
2018-12-29T13:26:47.745Z,94.00
2018-12-29T13:29:16.913Z,94.00
2018-12-29T13:31:46.226Z,94.00
2018-12-29T13:34:15.381Z,94.00
2018-12-29T13:36:44.486Z,93.90
2018-12-29T13:39:13.611Z,93.90
2018-12-29T13:41:42.748Z,93.80
2018-12-29T13:44:12.196Z,93.90
2018-12-29T13:46:42.008Z,93.90
2018-12-29T13:49:11.379Z,93.70
2018-12-29T13:51:40.525Z,93.70
2018-12-29T13:54:09.669Z,93.80
2018-12-29T13:56:38.845Z,93.80
2018-12-29T13:59:07.902Z,93.80
2018-12-29T14:01:37.017Z,93.70
2018-12-29T14:04:06.136Z,93.70
2018-12-29T14:06:35.663Z,93.80
2018-12-29T14:09:06.248Z,93.90
2018-12-29T14:11:35.326Z,93.80
2018-12-29T14:14:04.417Z,93.80
2018-12-29T14:16:33.555Z,93.80
2018-12-29T14:19:02.629Z,93.70
2018-12-29T14:21:31.697Z,93.70
2018-12-29T14:24:00.807Z,93.80
2018-12-29T14:26:30.150Z,93.80
2018-12-29T14:28:59.393Z,93.90
2018-12-29T14:31:28.494Z,93.90
2018-12-29T14:33:57.953Z,94.20
2018-12-29T14:36:27.118Z,93.90
2018-12-29T14:38:56.185Z,93.90
2018-12-29T14:41:25.722Z,93.90
2018-12-29T14:43:54.821Z,93.90
2018-12-29T14:46:23.991Z,93.90
2018-12-29T14:48:53.473Z,94.00
2018-12-29T14:51:22.660Z,93.90
2018-12-29T14:53:51.721Z,93.90
2018-12-29T14:56:20.816Z,93.90
2018-12-29T14:58:49.899Z,93.90
2018-12-29T15:01:19.101Z,94.00
2018-12-29T15:03:48.177Z,94.10
2018-12-29T15:06:17.323Z,94.20
2018-12-29T15:08:46.353Z,94.20
2018-12-29T15:11:15.476Z,94.20
2018-12-29T15:13:44.585Z,94.20
2018-12-29T15:16:13.902Z,94.20
2018-12-29T15:18:43.629Z,94.00
2018-12-29T15:21:13.463Z,93.90
2018-12-29T15:23:42.932Z,94.00
2018-12-29T15:26:12.509Z,93.90
2018-12-29T15:28:41.637Z,93.90
2018-12-29T15:31:10.708Z,93.80
2018-12-29T15:33:40.236Z,93.80
2018-12-29T15:36:15.889Z,93.80
2018-12-29T15:38:40.130Z,93.70
2018-12-29T15:41:09.241Z,93.60
2018-12-29T15:43:38.648Z,93.70
2018-12-29T15:46:07.780Z,93.60
2018-12-29T15:48:36.820Z,93.60
2018-12-29T15:51:05.968Z,93.60
2018-12-29T15:53:35.126Z,93.60
2018-12-29T15:56:04.266Z,93.60
2018-12-29T15:58:33.530Z,93.50
2018-12-29T16:01:02.890Z,93.50
2018-12-29T16:03:32.060Z,93.40
2018-12-29T16:06:01.202Z,93.40
2018-12-29T16:08:30.798Z,93.30
2018-12-29T16:11:00.720Z,93.30
2018-12-29T16:13:29.990Z,93.30
2018-12-29T16:15:59.241Z,93.40
2018-12-29T16:18:28.863Z,93.30
2018-12-29T16:20:58.086Z,93.40
2018-12-29T16:23:27.713Z,93.30
2018-12-29T16:25:56.843Z,93.20
2018-12-29T16:28:26.068Z,93.20
2018-12-29T16:30:55.255Z,93.20
2018-12-29T16:33:24.328Z,93.20
2018-12-29T16:35:54.025Z,93.20
2018-12-29T16:38:23.068Z,93.20
2018-12-29T16:40:57.859Z,93.20
2018-12-29T16:43:23.047Z,93.20
2018-12-29T16:45:52.225Z,93.20
2018-12-29T16:48:21.676Z,93.20
2018-12-29T16:50:50.736Z,93.10
2018-12-29T16:53:19.929Z,93.00
2018-12-29T16:55:49.238Z,93.10
2018-12-29T16:58:18.902Z,93.50
2018-12-29T17:00:48.235Z,93.10
2018-12-29T17:03:17.413Z,93.10
2018-12-29T17:05:46.688Z,93.10
2018-12-29T17:08:15.912Z,93.10
2018-12-29T17:10:45.260Z,93.10
2018-12-29T17:13:14.731Z,93.00
2018-12-29T17:15:43.966Z,92.90
2018-12-29T17:18:13.413Z,92.90
2018-12-29T17:20:42.541Z,92.90
2018-12-29T17:23:12.569Z,92.70
2018-12-29T17:25:42.611Z,92.60
2018-12-29T17:28:11.733Z,92.60
2018-12-29T17:30:40.820Z,92.50
2018-12-29T17:33:10.033Z,92.40
2018-12-29T17:35:39.494Z,92.30
2018-12-29T17:38:08.835Z,92.20
2018-12-29T17:40:38.121Z,92.20
2018-12-29T17:43:07.396Z,92.20
2018-12-29T17:45:36.553Z,92.20
2018-12-29T17:48:05.714Z,92.20
2018-12-29T17:50:35.339Z,92.10
2018-12-29T17:53:04.399Z,91.80
2018-12-29T17:55:33.656Z,91.90
2018-12-29T17:58:02.720Z,91.90
2018-12-29T18:00:32.163Z,91.80
2018-12-29T18:03:01.293Z,91.70
2018-12-29T18:05:30.329Z,91.60
2018-12-29T18:07:59.441Z,91.30
2018-12-29T18:10:29.205Z,91.30
2018-12-29T18:12:58.572Z,91.20
2018-12-29T18:15:27.689Z,91.20
2018-12-29T18:17:56.917Z,91.20
2018-12-29T18:20:25.984Z,90.90
2018-12-29T18:22:55.037Z,90.90
2018-12-29T18:25:24.432Z,90.80
2018-12-29T18:27:53.720Z,90.90
2018-12-29T18:30:22.785Z,90.80
2018-12-29T18:32:51.833Z,90.90
2018-12-29T18:35:21.025Z,90.80
2018-12-29T18:37:50.173Z,90.80
2018-12-29T18:40:19.369Z,90.70
2018-12-29T18:42:48.760Z,90.70
2018-12-29T18:45:17.824Z,90.60
2018-12-29T18:47:47.035Z,90.70
2018-12-29T18:50:16.205Z,90.60
2018-12-29T18:52:45.268Z,90.40
2018-12-29T18:55:14.297Z,90.30
2018-12-29T18:57:43.341Z,90.30
2018-12-29T19:00:12.459Z,90.10
2018-12-29T19:02:41.529Z,90.10
2018-12-29T19:05:10.644Z,90.40
2018-12-29T19:07:39.729Z,90.10
2018-12-29T19:10:09.046Z,90.00
2018-12-29T19:12:38.109Z,90.10
2018-12-29T19:15:07.261Z,90.20
2018-12-29T19:17:36.997Z,90.30
2018-12-29T19:20:07.077Z,90.30
2018-12-29T19:22:36.258Z,90.50
2018-12-29T19:25:05.305Z,90.50
2018-12-29T19:27:34.364Z,90.80
2018-12-29T19:30:05.270Z,90.70
2018-12-29T19:32:34.320Z,90.70
2018-12-29T19:35:03.932Z,90.90
2018-12-29T19:37:33.744Z,91.00
2018-12-29T19:40:02.789Z,91.00
2018-12-29T19:42:32.212Z,91.00
2018-12-29T19:45:01.394Z,91.30
2018-12-29T19:47:30.509Z,91.30
2018-12-29T19:49:59.952Z,91.40
2018-12-29T19:52:29.136Z,91.40
2018-12-29T19:54:58.251Z,91.30
2018-12-29T19:57:27.858Z,91.30
2018-12-29T19:59:56.888Z,91.40
2018-12-29T20:02:26.275Z,91.20
2018-12-29T20:04:55.688Z,91.30
2018-12-29T20:07:25.038Z,91.30
2018-12-29T20:09:54.108Z,91.50
2018-12-29T20:12:23.229Z,91.40
2018-12-29T20:14:52.321Z,91.30
2018-12-29T20:17:21.387Z,91.20
2018-12-29T20:19:50.871Z,91.30
2018-12-29T20:22:20.265Z,91.50
2018-12-29T20:24:49.317Z,91.50
2018-12-29T20:27:18.447Z,91.40
2018-12-29T20:29:47.521Z,91.40
2018-12-29T20:32:16.941Z,91.40
2018-12-29T20:34:45.993Z,91.30
2018-12-29T20:37:15.121Z,91.40
2018-12-29T20:39:44.266Z,91.50
2018-12-29T20:42:13.414Z,91.40
2018-12-29T20:44:44.481Z,91.50
2018-12-29T20:47:13.731Z,91.60
2018-12-29T20:49:42.876Z,91.50
2018-12-29T20:52:11.972Z,91.50
2018-12-29T20:54:41.320Z,91.50
2018-12-29T20:57:10.377Z,91.70
2018-12-29T20:59:39.421Z,91.70
2018-12-29T21:02:08.589Z,91.60
2018-12-29T21:04:37.646Z,91.40
2018-12-29T21:07:06.768Z,91.60
2018-12-29T21:09:35.900Z,91.60
2018-12-29T21:12:05.062Z,91.60
2018-12-29T21:14:35.850Z,91.60
2018-12-29T21:17:04.885Z,91.60
2018-12-29T21:19:33.960Z,91.60
2018-12-29T21:22:03.066Z,91.60
2018-12-29T21:24:32.465Z,91.70
2018-12-29T21:27:01.589Z,91.70
2018-12-29T21:29:30.662Z,91.80
2018-12-29T21:31:59.877Z,91.80
2018-12-29T21:34:28.950Z,91.80
2018-12-29T21:36:58.178Z,91.80
2018-12-29T21:39:27.209Z,91.70
2018-12-29T21:41:56.487Z,91.70
2018-12-29T21:44:25.882Z,91.80
2018-12-29T21:46:54.993Z,91.80
2018-12-29T21:49:24.048Z,91.80
2018-12-29T21:51:53.201Z,91.80
2018-12-29T21:54:22.355Z,91.80
2018-12-29T21:56:51.496Z,91.70
2018-12-29T21:59:20.632Z,91.70
2018-12-29T22:01:51.523Z,91.70
2018-12-29T22:04:21.096Z,91.80
2018-12-29T22:06:50.244Z,91.90
2018-12-29T22:09:19.433Z,91.90
2018-12-29T22:11:48.518Z,91.90
2018-12-29T22:14:17.742Z,92.00
2018-12-29T22:16:47.220Z,91.80
2018-12-29T22:19:16.554Z,91.90
2018-12-29T22:21:45.705Z,91.90
2018-12-29T22:24:16.046Z,91.90
2018-12-29T22:26:45.188Z,91.90
2018-12-29T22:29:14.912Z,91.90
2018-12-29T22:31:43.903Z,91.90
2018-12-29T22:34:12.947Z,91.90
2018-12-29T22:36:42.405Z,92.10
2018-12-29T22:39:11.514Z,92.00
2018-12-29T22:41:40.580Z,92.10
2018-12-29T22:44:10.097Z,92.20
2018-12-29T22:46:39.129Z,92.50
2018-12-29T22:49:08.093Z,92.10
2018-12-29T22:51:37.385Z,92.20
2018-12-29T22:54:06.452Z,92.30
2018-12-29T22:56:35.487Z,92.30
2018-12-29T22:59:04.692Z,92.30
2018-12-29T23:01:34.073Z,92.30
2018-12-29T23:04:03.183Z,92.50
2018-12-29T23:06:32.313Z,92.60
2018-12-29T23:09:01.541Z,92.50
2018-12-29T23:11:30.618Z,92.60
2018-12-29T23:13:59.718Z,92.60
2018-12-29T23:16:28.822Z,92.60
2018-12-29T23:18:58.417Z,92.60
2018-12-29T23:21:27.537Z,92.60
2018-12-29T23:23:56.840Z,92.60
2018-12-29T23:26:25.889Z,92.70
2018-12-29T23:28:55.068Z,92.70
2018-12-29T23:31:24.200Z,92.90
2018-12-29T23:33:53.337Z,92.90
2018-12-29T23:36:22.780Z,93.00
2018-12-29T23:38:51.792Z,93.00
2018-12-29T23:41:20.845Z,93.00
2018-12-29T23:43:50.296Z,92.90
2018-12-29T23:46:19.328Z,92.90
2018-12-29T23:48:48.433Z,93.00
2018-12-29T23:51:18.112Z,93.00
2018-12-29T23:53:47.161Z,93.10
2018-12-29T23:56:16.469Z,93.10
2018-12-29T23:58:45.985Z,93.10
